Neyland, United Kingdom
Current Conditions -  °F | °C
As of 7:50 PM on Wednesday 26 Nov 2014 (Local Time) from EGOP Reporting Station
Clear Clear  
Wind Chill: 36°   Ceiling: Unl
Heat Index: 36°   Visibility: 0.34mi
Dew Point: 34°   Wind: 1mph
Humidity: 93%   Direction: 330°NNW
Pressure: 29.8"   Gusts: NA
Location:  51.71°N, 4.95°W
Report Text: EGOP 261950Z AUTO 33001KT 0550 // NCD 02/01 Q1009
Loading
Personal Weather Stations






























Interactive Weather Map New forecast layout! Learn more

10-Day Weather Forecast

Advertisements
Track Severe Weather on mobile